sensor_id;sensor_type;location;lat;lon;timestamp;P1;durP1;ratioP1;P2;durP2;ratioP2
12332;SDS011;6232;48.094;11.288;2024-03-08T00:02:36;26.03;;;13.87;;
12332;SDS011;6232;48.094;11.288;2024-03-08T00:05:22;18.40;;;12.43;;
12332;SDS011;6232;48.094;11.288;2024-03-08T00:08:09;29.37;;;15.47;;
12332;SDS011;6232;48.094;11.288;2024-03-08T00:10:55;29.90;;;14.00;;
12332;SDS011;6232;48.094;11.288;2024-03-08T00:13:40;31.90;;;16.57;;
12332;SDS011;6232;48.094;11.288;2024-03-08T00:16:27;20.90;;;11.33;;
12332;SDS011;6232;48.094;11.288;2024-03-08T00:19:12;28.43;;;13.30;;
12332;SDS011;6232;48.094;11.288;2024-03-08T00:21:58;25.17;;;13.10;;
12332;SDS011;6232;48.094;11.288;2024-03-08T00:24:44;37.00;;;12.63;;
12332;SDS011;6232;48.094;11.288;2024-03-08T00:27:29;23.23;;;13.87;;
12332;SDS011;6232;48.094;11.288;2024-03-08T00:30:17;25.47;;;14.47;;
12332;SDS011;6232;48.094;11.288;2024-03-08T00:33:03;24.57;;;12.87;;
12332;SDS011;6232;48.094;11.288;2024-03-08T00:35:49;24.33;;;13.97;;
12332;SDS011;6232;48.094;11.288;2024-03-08T00:38:34;19.03;;;12.27;;
12332;SDS011;6232;48.094;11.288;2024-03-08T00:41:20;20.40;;;12.10;;
12332;SDS011;6232;48.094;11.288;2024-03-08T00:44:05;26.47;;;14.07;;
12332;SDS011;6232;48.094;11.288;2024-03-08T00:46:51;28.70;;;13.87;;
12332;SDS011;6232;48.094;11.288;2024-03-08T00:49:37;27.13;;;14.53;;
12332;SDS011;6232;48.094;11.288;2024-03-08T00:52:23;24.30;;;12.80;;
12332;SDS011;6232;48.094;11.288;2024-03-08T00:55:11;23.70;;;13.53;;
12332;SDS011;6232;48.094;11.288;2024-03-08T00:57:57;26.67;;;14.13;;
12332;SDS011;6232;48.094;11.288;2024-03-08T01:00:43;20.97;;;11.97;;
12332;SDS011;6232;48.094;11.288;2024-03-08T01:03:28;22.43;;;11.80;;
12332;SDS011;6232;48.094;11.288;2024-03-08T01:06:17;23.50;;;13.33;;
12332;SDS011;6232;48.094;11.288;2024-03-08T01:09:02;25.77;;;13.40;;
12332;SDS011;6232;48.094;11.288;2024-03-08T01:11:48;20.90;;;12.47;;
12332;SDS011;6232;48.094;11.288;2024-03-08T01:14:34;19.50;;;11.60;;
12332;SDS011;6232;48.094;11.288;2024-03-08T01:17:20;21.23;;;11.97;;
12332;SDS011;6232;48.094;11.288;2024-03-08T01:20:06;24.37;;;12.97;;
12332;SDS011;6232;48.094;11.288;2024-03-08T01:22:51;26.20;;;13.73;;
12332;SDS011;6232;48.094;11.288;2024-03-08T01:25:37;22.90;;;13.10;;
12332;SDS011;6232;48.094;11.288;2024-03-08T01:28:23;23.90;;;12.97;;
12332;SDS011;6232;48.094;11.288;2024-03-08T01:31:09;21.07;;;12.13;;
12332;SDS011;6232;48.094;11.288;2024-03-08T01:33:56;23.50;;;11.77;;
12332;SDS011;6232;48.094;11.288;2024-03-08T01:36:41;24.80;;;14.00;;
12332;SDS011;6232;48.094;11.288;2024-03-08T01:39:27;26.83;;;12.83;;
12332;SDS011;6232;48.094;11.288;2024-03-08T01:42:12;22.00;;;12.07;;
12332;SDS011;6232;48.094;11.288;2024-03-08T01:45:00;20.20;;;11.33;;
12332;SDS011;6232;48.094;11.288;2024-03-08T01:47:46;23.13;;;12.33;;
12332;SDS011;6232;48.094;11.288;2024-03-08T01:50:33;28.60;;;14.63;;
12332;SDS011;6232;48.094;11.288;2024-03-08T01:53:19;18.20;;;12.40;;
12332;SDS011;6232;48.094;11.288;2024-03-08T01:56:04;23.00;;;12.37;;
12332;SDS011;6232;48.094;11.288;2024-03-08T01:58:51;24.40;;;14.03;;
12332;SDS011;6232;48.094;11.288;2024-03-08T02:01:36;24.17;;;12.37;;
12332;SDS011;6232;48.094;11.288;2024-03-08T02:04:22;27.37;;;13.50;;
12332;SDS011;6232;48.094;11.288;2024-03-08T02:07:08;24.17;;;11.73;;
12332;SDS011;6232;48.094;11.288;2024-03-08T02:09:53;17.90;;;11.40;;
12332;SDS011;6232;48.094;11.288;2024-03-08T02:12:39;19.07;;;12.27;;
12332;SDS011;6232;48.094;11.288;2024-03-08T02:15:24;21.27;;;12.90;;
12332;SDS011;6232;48.094;11.288;2024-03-08T02:18:11;22.50;;;13.07;;
12332;SDS011;6232;48.094;11.288;2024-03-08T02:20:58;25.77;;;13.33;;
12332;SDS011;6232;48.094;11.288;2024-03-08T02:23:44;18.90;;;11.67;;
12332;SDS011;6232;48.094;11.288;2024-03-08T02:26:29;18.60;;;11.53;;
12332;SDS011;6232;48.094;11.288;2024-03-08T02:29:15;22.50;;;12.17;;
12332;SDS011;6232;48.094;11.288;2024-03-08T02:32:00;22.30;;;13.27;;
12332;SDS011;6232;48.094;11.288;2024-03-08T02:34:46;26.37;;;13.80;;
12332;SDS011;6232;48.094;11.288;2024-03-08T02:37:31;25.40;;;14.27;;
12332;SDS011;6232;48.094;11.288;2024-03-08T02:40:17;25.47;;;11.80;;
12332;SDS011;6232;48.094;11.288;2024-03-08T02:43:03;23.03;;;12.30;;
12332;SDS011;6232;48.094;11.288;2024-03-08T02:45:50;24.20;;;11.67;;
12332;SDS011;6232;48.094;11.288;2024-03-08T02:48:38;23.43;;;13.83;;
12332;SDS011;6232;48.094;11.288;2024-03-08T02:51:25;35.43;;;14.40;;
12332;SDS011;6232;48.094;11.288;2024-03-08T02:54:11;15.40;;;10.93;;
12332;SDS011;6232;48.094;11.288;2024-03-08T02:56:57;19.80;;;11.93;;
12332;SDS011;6232;48.094;11.288;2024-03-08T02:59:42;25.87;;;13.67;;
12332;SDS011;6232;48.094;11.288;2024-03-08T03:02:28;30.20;;;14.30;;
12332;SDS011;6232;48.094;11.288;2024-03-08T03:05:13;25.03;;;12.90;;
12332;SDS011;6232;48.094;11.288;2024-03-08T03:07:59;20.73;;;12.83;;
12332;SDS011;6232;48.094;11.288;2024-03-08T03:10:45;23.63;;;12.40;;
12332;SDS011;6232;48.094;11.288;2024-03-08T03:13:30;20.73;;;13.70;;
12332;SDS011;6232;48.094;11.288;2024-03-08T03:16:17;20.70;;;11.97;;
12332;SDS011;6232;48.094;11.288;2024-03-08T03:19:03;22.03;;;13.00;;
12332;SDS011;6232;48.094;11.288;2024-03-08T03:21:50;22.67;;;12.03;;
12332;SDS011;6232;48.094;11.288;2024-03-08T03:24:38;27.30;;;13.50;;
12332;SDS011;6232;48.094;11.288;2024-03-08T03:27:23;20.80;;;12.37;;
12332;SDS011;6232;48.094;11.288;2024-03-08T03:30:10;20.07;;;12.20;;
12332;SDS011;6232;48.094;11.288;2024-03-08T03:33:06;28.77;;;14.80;;
12332;SDS011;6232;48.094;11.288;2024-03-08T03:35:55;27.10;;;13.10;;
12332;SDS011;6232;48.094;11.288;2024-03-08T03:38:40;23.20;;;13.57;;
12332;SDS011;6232;48.094;11.288;2024-03-08T03:41:26;25.03;;;13.37;;
12332;SDS011;6232;48.094;11.288;2024-03-08T03:44:12;20.07;;;13.03;;
12332;SDS011;6232;48.094;11.288;2024-03-08T03:46:57;24.30;;;13.50;;
12332;SDS011;6232;48.094;11.288;2024-03-08T03:49:43;25.57;;;12.70;;
12332;SDS011;6232;48.094;11.288;2024-03-08T03:52:28;29.47;;;12.23;;
12332;SDS011;6232;48.094;11.288;2024-03-08T03:55:14;24.30;;;14.60;;
12332;SDS011;6232;48.094;11.288;2024-03-08T03:58:00;26.83;;;13.00;;
12332;SDS011;6232;48.094;11.288;2024-03-08T04:00:46;23.93;;;12.87;;
12332;SDS011;6232;48.094;11.288;2024-03-08T04:03:32;24.20;;;13.97;;
12332;SDS011;6232;48.094;11.288;2024-03-08T04:06:17;25.77;;;12.53;;
12332;SDS011;6232;48.094;11.288;2024-03-08T04:09:03;30.00;;;14.60;;
12332;SDS011;6232;48.094;11.288;2024-03-08T04:11:49;37.20;;;14.63;;
12332;SDS011;6232;48.094;11.288;2024-03-08T04:14:40;25.83;;;12.90;;
12332;SDS011;6232;48.094;11.288;2024-03-08T04:17:26;31.87;;;14.10;;
12332;SDS011;6232;48.094;11.288;2024-03-08T04:20:12;26.30;;;14.63;;
12332;SDS011;6232;48.094;11.288;2024-03-08T04:23:00;23.20;;;13.60;;
12332;SDS011;6232;48.094;11.288;2024-03-08T04:25:46;22.33;;;13.97;;
12332;SDS011;6232;48.094;11.288;2024-03-08T04:28:31;28.37;;;14.53;;
12332;SDS011;6232;48.094;11.288;2024-03-08T04:31:17;22.93;;;13.00;;
12332;SDS011;6232;48.094;11.288;2024-03-08T04:34:02;27.83;;;15.83;;
12332;SDS011;6232;48.094;11.288;2024-03-08T04:36:50;21.43;;;13.17;;
12332;SDS011;6232;48.094;11.288;2024-03-08T04:39:36;28.17;;;15.33;;
12332;SDS011;6232;48.094;11.288;2024-03-08T04:42:21;25.40;;;14.23;;
12332;SDS011;6232;48.094;11.288;2024-03-08T04:45:08;26.40;;;13.67;;
12332;SDS011;6232;48.094;11.288;2024-03-08T04:47:53;27.10;;;14.23;;
12332;SDS011;6232;48.094;11.288;2024-03-08T04:50:39;32.87;;;16.20;;
12332;SDS011;6232;48.094;11.288;2024-03-08T04:53:25;25.67;;;13.50;;
12332;SDS011;6232;48.094;11.288;2024-03-08T04:56:10;23.00;;;14.27;;
12332;SDS011;6232;48.094;11.288;2024-03-08T04:58:56;37.50;;;15.23;;
12332;SDS011;6232;48.094;11.288;2024-03-08T05:01:41;27.07;;;15.07;;
12332;SDS011;6232;48.094;11.288;2024-03-08T05:04:28;34.80;;;16.00;;
12332;SDS011;6232;48.094;11.288;2024-03-08T05:07:14;31.20;;;16.40;;
12332;SDS011;6232;48.094;11.288;2024-03-08T05:10:00;35.80;;;17.10;;
12332;SDS011;6232;48.094;11.288;2024-03-08T05:12:45;31.10;;;15.53;;
12332;SDS011;6232;48.094;11.288;2024-03-08T05:15:31;35.87;;;15.77;;
12332;SDS011;6232;48.094;11.288;2024-03-08T05:18:20;31.17;;;15.90;;
12332;SDS011;6232;48.094;11.288;2024-03-08T05:21:07;31.93;;;16.67;;
12332;SDS011;6232;48.094;11.288;2024-03-08T05:23:54;34.00;;;16.60;;
12332;SDS011;6232;48.094;11.288;2024-03-08T05:26:40;27.37;;;15.47;;
12332;SDS011;6232;48.094;11.288;2024-03-08T05:29:25;35.20;;;17.23;;
12332;SDS011;6232;48.094;11.288;2024-03-08T05:32:11;35.87;;;17.13;;
12332;SDS011;6232;48.094;11.288;2024-03-08T05:34:57;37.83;;;17.87;;
12332;SDS011;6232;48.094;11.288;2024-03-08T05:37:43;34.40;;;16.60;;
12332;SDS011;6232;48.094;11.288;2024-03-08T05:40:28;29.07;;;16.57;;
12332;SDS011;6232;48.094;11.288;2024-03-08T05:43:17;30.30;;;14.87;;
12332;SDS011;6232;48.094;11.288;2024-03-08T05:46:04;30.30;;;17.70;;
12332;SDS011;6232;48.094;11.288;2024-03-08T05:48:50;40.57;;;19.27;;
12332;SDS011;6232;48.094;11.288;2024-03-08T05:51:36;36.40;;;19.07;;
12332;SDS011;6232;48.094;11.288;2024-03-08T05:54:22;43.17;;;16.63;;
12332;SDS011;6232;48.094;11.288;2024-03-08T05:57:09;31.60;;;16.83;;
12332;SDS011;6232;48.094;11.288;2024-03-08T05:59:56;36.10;;;18.67;;
12332;SDS011;6232;48.094;11.288;2024-03-08T06:02:41;40.00;;;18.27;;
12332;SDS011;6232;48.094;11.288;2024-03-08T06:05:27;31.37;;;16.37;;
12332;SDS011;6232;48.094;11.288;2024-03-08T06:08:12;34.73;;;17.40;;
12332;SDS011;6232;48.094;11.288;2024-03-08T06:11:00;31.83;;;17.70;;
12332;SDS011;6232;48.094;11.288;2024-03-08T06:13:47;38.70;;;18.43;;
12332;SDS011;6232;48.094;11.288;2024-03-08T06:16:33;29.83;;;15.80;;
12332;SDS011;6232;48.094;11.288;2024-03-08T06:19:19;36.00;;;17.13;;
12332;SDS011;6232;48.094;11.288;2024-03-08T06:22:04;24.77;;;15.37;;
12332;SDS011;6232;48.094;11.288;2024-03-08T06:24:51;32.73;;;18.27;;
12332;SDS011;6232;48.094;11.288;2024-03-08T06:27:36;36.07;;;18.50;;
12332;SDS011;6232;48.094;11.288;2024-03-08T06:30:22;33.27;;;16.93;;
12332;SDS011;6232;48.094;11.288;2024-03-08T06:33:08;36.13;;;16.73;;
12332;SDS011;6232;48.094;11.288;2024-03-08T06:35:53;39.30;;;17.57;;
12332;SDS011;6232;48.094;11.288;2024-03-08T06:38:42;33.63;;;17.17;;
12332;SDS011;6232;48.094;11.288;2024-03-08T06:41:29;36.50;;;19.10;;
12332;SDS011;6232;48.094;11.288;2024-03-08T06:44:15;35.20;;;17.03;;
12332;SDS011;6232;48.094;11.288;2024-03-08T06:47:02;31.63;;;16.37;;
12332;SDS011;6232;48.094;11.288;2024-03-08T06:49:47;35.60;;;17.17;;
12332;SDS011;6232;48.094;11.288;2024-03-08T06:52:34;33.67;;;17.87;;
12332;SDS011;6232;48.094;11.288;2024-03-08T06:55:20;32.60;;;17.80;;
12332;SDS011;6232;48.094;11.288;2024-03-08T06:58:06;31.60;;;18.17;;
12332;SDS011;6232;48.094;11.288;2024-03-08T07:00:56;45.97;;;19.70;;
12332;SDS011;6232;48.094;11.288;2024-03-08T07:03:45;36.20;;;18.30;;
12332;SDS011;6232;48.094;11.288;2024-03-08T07:06:31;39.33;;;16.93;;
12332;SDS011;6232;48.094;11.288;2024-03-08T07:09:18;32.43;;;17.17;;
12332;SDS011;6232;48.094;11.288;2024-03-08T07:12:04;31.43;;;16.43;;
12332;SDS011;6232;48.094;11.288;2024-03-08T07:14:50;25.93;;;15.37;;
12332;SDS011;6232;48.094;11.288;2024-03-08T07:17:35;24.67;;;16.53;;
12332;SDS011;6232;48.094;11.288;2024-03-08T07:20:21;42.87;;;17.60;;
12332;SDS011;6232;48.094;11.288;2024-03-08T07:23:06;32.77;;;17.50;;
12332;SDS011;6232;48.094;11.288;2024-03-08T07:25:53;34.20;;;17.30;;
12332;SDS011;6232;48.094;11.288;2024-03-08T07:28:39;30.73;;;17.03;;
12332;SDS011;6232;48.094;11.288;2024-03-08T07:31:24;36.20;;;16.17;;
12332;SDS011;6232;48.094;11.288;2024-03-08T07:34:22;37.90;;;17.87;;
12332;SDS011;6232;48.094;11.288;2024-03-08T07:37:08;29.23;;;14.87;;
12332;SDS011;6232;48.094;11.288;2024-03-08T07:39:56;40.83;;;15.53;;
12332;SDS011;6232;48.094;11.288;2024-03-08T07:42:43;30.93;;;16.30;;
12332;SDS011;6232;48.094;11.288;2024-03-08T07:45:28;28.00;;;16.83;;
12332;SDS011;6232;48.094;11.288;2024-03-08T07:48:14;31.23;;;17.67;;
12332;SDS011;6232;48.094;11.288;2024-03-08T07:50:59;26.43;;;14.40;;
12332;SDS011;6232;48.094;11.288;2024-03-08T07:53:45;31.30;;;16.20;;
12332;SDS011;6232;48.094;11.288;2024-03-08T07:56:30;27.33;;;15.40;;
12332;SDS011;6232;48.094;11.288;2024-03-08T07:59:16;36.77;;;17.30;;
12332;SDS011;6232;48.094;11.288;2024-03-08T08:02:01;26.47;;;15.73;;
12332;SDS011;6232;48.094;11.288;2024-03-08T08:04:47;28.20;;;15.33;;
12332;SDS011;6232;48.094;11.288;2024-03-08T08:07:33;24.40;;;14.80;;
12332;SDS011;6232;48.094;11.288;2024-03-08T08:10:18;28.10;;;13.80;;
12332;SDS011;6232;48.094;11.288;2024-03-08T08:13:07;29.23;;;14.73;;
12332;SDS011;6232;48.094;11.288;2024-03-08T08:15:52;31.27;;;14.70;;
12332;SDS011;6232;48.094;11.288;2024-03-08T08:18:38;25.63;;;14.70;;
12332;SDS011;6232;48.094;11.288;2024-03-08T08:21:24;26.57;;;15.17;;
12332;SDS011;6232;48.094;11.288;2024-03-08T08:24:11;26.17;;;12.60;;
12332;SDS011;6232;48.094;11.288;2024-03-08T08:26:57;19.93;;;12.53;;
12332;SDS011;6232;48.094;11.288;2024-03-08T08:29:42;26.40;;;12.60;;
12332;SDS011;6232;48.094;11.288;2024-03-08T08:32:28;18.60;;;11.30;;
12332;SDS011;6232;48.094;11.288;2024-03-08T08:35:14;21.47;;;13.90;;
12332;SDS011;6232;48.094;11.288;2024-03-08T08:38:00;23.30;;;12.23;;
12332;SDS011;6232;48.094;11.288;2024-03-08T08:40:46;19.07;;;12.27;;
12332;SDS011;6232;48.094;11.288;2024-03-08T08:43:32;21.83;;;13.47;;
12332;SDS011;6232;48.094;11.288;2024-03-08T08:46:18;18.70;;;10.73;;
12332;SDS011;6232;48.094;11.288;2024-03-08T08:49:04;21.00;;;11.97;;
12332;SDS011;6232;48.094;11.288;2024-03-08T08:51:51;18.17;;;12.40;;
12332;SDS011;6232;48.094;11.288;2024-03-08T08:54:37;19.63;;;11.20;;
12332;SDS011;6232;48.094;11.288;2024-03-08T08:57:22;20.03;;;12.07;;
12332;SDS011;6232;48.094;11.288;2024-03-08T09:00:08;23.00;;;11.57;;
12332;SDS011;6232;48.094;11.288;2024-03-08T09:02:54;15.90;;;11.43;;
12332;SDS011;6232;48.094;11.288;2024-03-08T09:05:41;18.20;;;12.07;;
12332;SDS011;6232;48.094;11.288;2024-03-08T09:08:28;24.83;;;12.57;;
12332;SDS011;6232;48.094;11.288;2024-03-08T09:11:14;23.50;;;11.93;;
12332;SDS011;6232;48.094;11.288;2024-03-08T09:14:00;20.00;;;12.53;;
12332;SDS011;6232;48.094;11.288;2024-03-08T09:16:47;18.13;;;12.73;;
12332;SDS011;6232;48.094;11.288;2024-03-08T09:19:32;19.07;;;12.57;;
12332;SDS011;6232;48.094;11.288;2024-03-08T09:22:18;20.93;;;12.20;;
12332;SDS011;6232;48.094;11.288;2024-03-08T09:25:04;20.70;;;12.00;;
12332;SDS011;6232;48.094;11.288;2024-03-08T09:27:50;17.10;;;12.33;;
12332;SDS011;6232;48.094;11.288;2024-03-08T09:30:36;19.00;;;12.83;;
12332;SDS011;6232;48.094;11.288;2024-03-08T09:33:22;18.87;;;12.60;;
12332;SDS011;6232;48.094;11.288;2024-03-08T09:36:08;17.03;;;12.80;;
12332;SDS011;6232;48.094;11.288;2024-03-08T09:38:53;16.90;;;11.90;;
12332;SDS011;6232;48.094;11.288;2024-03-08T09:41:39;26.13;;;13.37;;
12332;SDS011;6232;48.094;11.288;2024-03-08T09:44:24;22.83;;;12.23;;
12332;SDS011;6232;48.094;11.288;2024-03-08T09:47:11;18.07;;;12.43;;
12332;SDS011;6232;48.094;11.288;2024-03-08T09:49:59;19.77;;;12.13;;
12332;SDS011;6232;48.094;11.288;2024-03-08T09:52:48;17.40;;;11.83;;
12332;SDS011;6232;48.094;11.288;2024-03-08T09:55:35;18.17;;;11.00;;
12332;SDS011;6232;48.094;11.288;2024-03-08T09:58:22;18.80;;;11.43;;
12332;SDS011;6232;48.094;11.288;2024-03-08T10:01:19;18.97;;;11.90;;
12332;SDS011;6232;48.094;11.288;2024-03-08T10:04:05;15.57;;;11.20;;
12332;SDS011;6232;48.094;11.288;2024-03-08T10:06:51;19.27;;;13.20;;
12332;SDS011;6232;48.094;11.288;2024-03-08T10:09:37;15.63;;;11.70;;
12332;SDS011;6232;48.094;11.288;2024-03-08T10:12:23;15.73;;;12.20;;
12332;SDS011;6232;48.094;11.288;2024-03-08T10:15:09;17.60;;;11.97;;
12332;SDS011;6232;48.094;11.288;2024-03-08T10:17:55;14.63;;;10.97;;
12332;SDS011;6232;48.094;11.288;2024-03-08T10:20:41;16.40;;;11.30;;
12332;SDS011;6232;48.094;11.288;2024-03-08T10:23:27;12.90;;;10.20;;
12332;SDS011;6232;48.094;11.288;2024-03-08T10:26:14;22.40;;;11.97;;
12332;SDS011;6232;48.094;11.288;2024-03-08T10:29:00;12.67;;;10.60;;
12332;SDS011;6232;48.094;11.288;2024-03-08T10:31:45;22.57;;;11.47;;
12332;SDS011;6232;48.094;11.288;2024-03-08T10:34:31;13.60;;;11.27;;
12332;SDS011;6232;48.094;11.288;2024-03-08T10:37:16;13.73;;;10.83;;
12332;SDS011;6232;48.094;11.288;2024-03-08T10:40:07;17.77;;;11.37;;
12332;SDS011;6232;48.094;11.288;2024-03-08T10:43:00;17.20;;;11.80;;
12332;SDS011;6232;48.094;11.288;2024-03-08T10:45:46;15.60;;;11.40;;
12332;SDS011;6232;48.094;11.288;2024-03-08T10:48:35;13.97;;;11.77;;
12332;SDS011;6232;48.094;11.288;2024-03-08T10:51:22;15.83;;;11.60;;
12332;SDS011;6232;48.094;11.288;2024-03-08T10:54:08;15.43;;;11.30;;
12332;SDS011;6232;48.094;11.288;2024-03-08T10:56:54;13.00;;;10.83;;
12332;SDS011;6232;48.094;11.288;2024-03-08T10:59:40;16.53;;;11.73;;
12332;SDS011;6232;48.094;11.288;2024-03-08T11:02:28;13.73;;;10.50;;
12332;SDS011;6232;48.094;11.288;2024-03-08T11:05:30;15.40;;;11.73;;
12332;SDS011;6232;48.094;11.288;2024-03-08T11:08:18;13.80;;;10.87;;
12332;SDS011;6232;48.094;11.288;2024-03-08T11:11:22;17.27;;;12.10;;
12332;SDS011;6232;48.094;11.288;2024-03-08T11:14:42;15.97;;;10.97;;
12332;SDS011;6232;48.094;11.288;2024-03-08T11:17:25;12.63;;;10.10;;
12332;SDS011;6232;48.094;11.288;2024-03-08T11:20:11;12.63;;;10.67;;
12332;SDS011;6232;48.094;11.288;2024-03-08T11:23:03;16.80;;;11.17;;
12332;SDS011;6232;48.094;11.288;2024-03-08T11:25:49;15.57;;;11.93;;
12332;SDS011;6232;48.094;11.288;2024-03-08T11:28:38;14.60;;;10.93;;
12332;SDS011;6232;48.094;11.288;2024-03-08T11:31:24;12.50;;;9.53;;
12332;SDS011;6232;48.094;11.288;2024-03-08T11:34:19;14.30;;;10.07;;
12332;SDS011;6232;48.094;11.288;2024-03-08T11:37:05;18.63;;;11.47;;
12332;SDS011;6232;48.094;11.288;2024-03-08T11:39:54;14.40;;;11.40;;
12332;SDS011;6232;48.094;11.288;2024-03-08T11:42:49;16.30;;;12.70;;
12332;SDS011;6232;48.094;11.288;2024-03-08T11:45:36;16.07;;;11.97;;
12332;SDS011;6232;48.094;11.288;2024-03-08T11:48:22;16.63;;;11.87;;
12332;SDS011;6232;48.094;11.288;2024-03-08T11:51:12;14.60;;;11.80;;
12332;SDS011;6232;48.094;11.288;2024-03-08T11:53:59;15.00;;;10.93;;
12332;SDS011;6232;48.094;11.288;2024-03-08T11:56:44;15.57;;;10.87;;
12332;SDS011;6232;48.094;11.288;2024-03-08T11:59:32;15.00;;;10.70;;
12332;SDS011;6232;48.094;11.288;2024-03-08T12:02:18;13.57;;;10.70;;
12332;SDS011;6232;48.094;11.288;2024-03-08T12:05:04;21.53;;;10.70;;
12332;SDS011;6232;48.094;11.288;2024-03-08T12:07:57;12.90;;;10.17;;
12332;SDS011;6232;48.094;11.288;2024-03-08T12:10:43;12.60;;;9.53;;
12332;SDS011;6232;48.094;11.288;2024-03-08T12:13:30;13.60;;;10.10;;
12332;SDS011;6232;48.094;11.288;2024-03-08T12:16:17;11.27;;;9.07;;
12332;SDS011;6232;48.094;11.288;2024-03-08T12:19:03;13.17;;;10.33;;
12332;SDS011;6232;48.094;11.288;2024-03-08T12:21:49;12.43;;;9.40;;
12332;SDS011;6232;48.094;11.288;2024-03-08T12:24:35;11.27;;;9.50;;
12332;SDS011;6232;48.094;11.288;2024-03-08T12:27:22;11.87;;;8.33;;
12332;SDS011;6232;48.094;11.288;2024-03-08T12:30:21;14.30;;;9.73;;
12332;SDS011;6232;48.094;11.288;2024-03-08T12:33:07;13.10;;;8.93;;
12332;SDS011;6232;48.094;11.288;2024-03-08T12:35:56;12.10;;;8.50;;
12332;SDS011;6232;48.094;11.288;2024-03-08T12:38:43;18.50;;;9.83;;
12332;SDS011;6232;48.094;11.288;2024-03-08T12:41:29;12.30;;;9.40;;
12332;SDS011;6232;48.094;11.288;2024-03-08T12:44:15;16.53;;;8.03;;
12332;SDS011;6232;48.094;11.288;2024-03-08T12:47:00;9.50;;;8.53;;
12332;SDS011;6232;48.094;11.288;2024-03-08T12:49:46;11.10;;;9.10;;
12332;SDS011;6232;48.094;11.288;2024-03-08T12:52:32;12.47;;;10.30;;
12332;SDS011;6232;48.094;11.288;2024-03-08T12:55:19;12.40;;;9.50;;
12332;SDS011;6232;48.094;11.288;2024-03-08T12:58:05;17.17;;;10.40;;
12332;SDS011;6232;48.094;11.288;2024-03-08T13:00:52;13.13;;;9.83;;
12332;SDS011;6232;48.094;11.288;2024-03-08T13:03:38;13.43;;;10.17;;
12332;SDS011;6232;48.094;11.288;2024-03-08T13:06:23;11.93;;;9.47;;
12332;SDS011;6232;48.094;11.288;2024-03-08T13:09:09;14.87;;;10.20;;
12332;SDS011;6232;48.094;11.288;2024-03-08T13:11:55;16.30;;;10.30;;
12332;SDS011;6232;48.094;11.288;2024-03-08T13:14:43;13.20;;;8.77;;
12332;SDS011;6232;48.094;11.288;2024-03-08T13:17:29;10.97;;;8.87;;
12332;SDS011;6232;48.094;11.288;2024-03-08T13:20:15;12.40;;;9.70;;
12332;SDS011;6232;48.094;11.288;2024-03-08T13:23:04;15.00;;;9.60;;
12332;SDS011;6232;48.094;11.288;2024-03-08T13:25:50;15.50;;;10.50;;
12332;SDS011;6232;48.094;11.288;2024-03-08T13:28:36;13.27;;;9.97;;
12332;SDS011;6232;48.094;11.288;2024-03-08T13:31:22;12.27;;;9.70;;
12332;SDS011;6232;48.094;11.288;2024-03-08T13:34:08;11.13;;;9.67;;
12332;SDS011;6232;48.094;11.288;2024-03-08T13:36:56;11.17;;;9.00;;
12332;SDS011;6232;48.094;11.288;2024-03-08T13:39:45;14.77;;;9.90;;
12332;SDS011;6232;48.094;11.288;2024-03-08T13:42:31;13.77;;;10.93;;
12332;SDS011;6232;48.094;11.288;2024-03-08T13:45:16;14.20;;;10.90;;
12332;SDS011;6232;48.094;11.288;2024-03-08T13:48:07;14.27;;;11.00;;
12332;SDS011;6232;48.094;11.288;2024-03-08T13:50:57;13.23;;;9.90;;
12332;SDS011;6232;48.094;11.288;2024-03-08T13:53:43;15.70;;;10.53;;
12332;SDS011;6232;48.094;11.288;2024-03-08T13:56:29;11.70;;;10.33;;
12332;SDS011;6232;48.094;11.288;2024-03-08T13:59:16;13.87;;;11.00;;
12332;SDS011;6232;48.094;11.288;2024-03-08T14:02:03;15.40;;;10.73;;
12332;SDS011;6232;48.094;11.288;2024-03-08T14:04:49;11.13;;;9.30;;
12332;SDS011;6232;48.094;11.288;2024-03-08T14:07:35;13.80;;;9.97;;
12332;SDS011;6232;48.094;11.288;2024-03-08T14:10:21;10.73;;;9.23;;
12332;SDS011;6232;48.094;11.288;2024-03-08T14:13:08;10.57;;;8.80;;
12332;SDS011;6232;48.094;11.288;2024-03-08T14:15:54;11.27;;;9.80;;
12332;SDS011;6232;48.094;11.288;2024-03-08T14:18:41;11.00;;;9.40;;
12332;SDS011;6232;48.094;11.288;2024-03-08T14:21:27;13.93;;;10.37;;
12332;SDS011;6232;48.094;11.288;2024-03-08T14:24:12;15.67;;;10.50;;
12332;SDS011;6232;48.094;11.288;2024-03-08T14:27:00;15.97;;;10.13;;
12332;SDS011;6232;48.094;11.288;2024-03-08T14:29:45;12.20;;;9.10;;
12332;SDS011;6232;48.094;11.288;2024-03-08T14:32:31;14.43;;;9.50;;
12332;SDS011;6232;48.094;11.288;2024-03-08T14:35:18;11.87;;;9.53;;
12332;SDS011;6232;48.094;11.288;2024-03-08T14:38:05;14.47;;;9.63;;
12332;SDS011;6232;48.094;11.288;2024-03-08T14:40:54;17.70;;;9.77;;
12332;SDS011;6232;48.094;11.288;2024-03-08T14:43:43;11.80;;;9.87;;
12332;SDS011;6232;48.094;11.288;2024-03-08T14:46:32;13.60;;;10.40;;
12332;SDS011;6232;48.094;11.288;2024-03-08T14:49:18;14.13;;;10.30;;
12332;SDS011;6232;48.094;11.288;2024-03-08T14:52:04;14.30;;;10.90;;
12332;SDS011;6232;48.094;11.288;2024-03-08T14:55:10;13.70;;;10.80;;
12332;SDS011;6232;48.094;11.288;2024-03-08T14:57:59;13.07;;;11.07;;
12332;SDS011;6232;48.094;11.288;2024-03-08T15:00:45;15.07;;;11.27;;
12332;SDS011;6232;48.094;11.288;2024-03-08T15:03:31;11.37;;;9.70;;
12332;SDS011;6232;48.094;11.288;2024-03-08T15:06:17;14.73;;;11.30;;
12332;SDS011;6232;48.094;11.288;2024-03-08T15:09:05;13.97;;;11.10;;
12332;SDS011;6232;48.094;11.288;2024-03-08T15:11:57;15.13;;;9.90;;
12332;SDS011;6232;48.094;11.288;2024-03-08T15:14:43;16.70;;;11.47;;
12332;SDS011;6232;48.094;11.288;2024-03-08T15:17:29;14.90;;;10.63;;
12332;SDS011;6232;48.094;11.288;2024-03-08T15:20:14;14.37;;;11.37;;
12332;SDS011;6232;48.094;11.288;2024-03-08T15:23:09;12.77;;;10.00;;
12332;SDS011;6232;48.094;11.288;2024-03-08T15:25:55;13.30;;;10.73;;
12332;SDS011;6232;48.094;11.288;2024-03-08T15:28:40;14.13;;;10.90;;
12332;SDS011;6232;48.094;11.288;2024-03-08T15:31:26;14.10;;;10.63;;
12332;SDS011;6232;48.094;11.288;2024-03-08T15:34:12;13.33;;;11.00;;
12332;SDS011;6232;48.094;11.288;2024-03-08T15:36:58;14.63;;;11.67;;
12332;SDS011;6232;48.094;11.288;2024-03-08T15:39:47;13.83;;;11.17;;
12332;SDS011;6232;48.094;11.288;2024-03-08T15:42:33;14.97;;;11.10;;
12332;SDS011;6232;48.094;11.288;2024-03-08T15:45:19;17.53;;;10.97;;
12332;SDS011;6232;48.094;11.288;2024-03-08T15:48:05;15.13;;;11.37;;
12332;SDS011;6232;48.094;11.288;2024-03-08T15:50:51;16.10;;;11.87;;
12332;SDS011;6232;48.094;11.288;2024-03-08T15:53:36;15.10;;;11.37;;
12332;SDS011;6232;48.094;11.288;2024-03-08T15:56:23;15.87;;;10.17;;
12332;SDS011;6232;48.094;11.288;2024-03-08T15:59:09;14.90;;;12.33;;
12332;SDS011;6232;48.094;11.288;2024-03-08T16:01:54;13.23;;;10.23;;
12332;SDS011;6232;48.094;11.288;2024-03-08T16:04:40;13.90;;;10.53;;
12332;SDS011;6232;48.094;11.288;2024-03-08T16:07:26;15.50;;;11.30;;
12332;SDS011;6232;48.094;11.288;2024-03-08T16:10:12;18.83;;;13.20;;
12332;SDS011;6232;48.094;11.288;2024-03-08T16:12:57;19.37;;;12.10;;
12332;SDS011;6232;48.094;11.288;2024-03-08T16:15:46;21.70;;;12.43;;
12332;SDS011;6232;48.094;11.288;2024-03-08T16:18:32;22.50;;;12.23;;